Aqualoyalty — A8ZC6 — position and weather

sailwx.info

Track history (hours):
 
Tides and Currents Weather Stations Pressure Air Temp Water Temp Dewpoint Dewpoint Depression Visibility Wind Speed Wind Dir Waves Ship Positions

Aqualoyalty

Last reported at 2016-Nov-26 15:16 UTC. Time now 2016-Dec-06 19:53 UTC.
Position N 32°03' W 117°39'.
Warning: this ship's position is 10 days out of date.

Length 249 m; draft 8.5 m.

Type: Ship. MMSI: 636015177.

Date/timePositionNaut miles runAvg speedWind from/ knotsBaromVisibWave heightAir tempDewpointWater temp
2016-Nov-26 15:16N 32°03' W 117°39'913.0
2016-Nov-26 14:33N 32°12' W 117°42'1212.1
2016-Nov-26 13:33N 32°23' W 117°46'1110.9
2016-Nov-26 12:33N 32°34' W 117°50'1110.9
2016-Nov-26 11:33N 32°44' W 117°54'1212.0
2016-Nov-26 10:33N 32°55' W 117°58'1312.6
2016-Nov-26 09:33N 33°08' W 118°02'1211.8
2016-Nov-26 08:33N 33°19' W 118°06'1211.8
2016-Nov-26 07:33N 33°30' W 118°11'1111.2
2016-Nov-26 06:33N 33°41' W 118°12'3 2.9
2016-Nov-26 05:32N 33°44' W 118°13'0 0.0
2016-Nov-26 04:32N 33°44' W 118°13'0 0.0
2016-Nov-26 03:32N 33°44' W 118°13'0 0.1
2016-Nov-26 02:32N 33°44' W 118°13'0 0.1
2016-Nov-26 01:32N 33°44' W 118°13'0 0.5
2016-Nov-26 00:33N 33°44' W 118°13'1 0.0
2016-Nov-25 00:33N 33°45' W 118°13'0 0.1
2016-Nov-24 23:33N 33°45' W 118°13'5 4.6
2016-Nov-24 22:33N 33°42' W 118°10'1 0.5
2016-Nov-24 21:33N 33°42' W 118°09'0 0.0
2016-Nov-24 20:33N 33°42' W 118°09'0 0.0
2016-Nov-24 19:33N 33°42' W 118°09'0 0.0
2016-Nov-24 18:33N 33°42' W 118°09'0 0.0
2016-Nov-24 17:33N 33°42' W 118°09'0 0.0
2016-Nov-24 16:33N 33°42' W 118°09'0 0.0
2016-Nov-24 15:33N 33°42' W 118°09'0 0.0
2016-Nov-24 14:33N 33°42' W 118°09'0 0.0
2016-Nov-24 13:33N 33°42' W 118°09'0 0.1
2016-Nov-24 12:33N 33°42' W 118°09'0 0.0
2016-Nov-24 11:33N 33°42' W 118°09'0 0.0
2016-Nov-24 10:33N 33°42' W 118°09'0 0.1
2016-Nov-24 09:33N 33°42' W 118°09'0 0.0
2016-Nov-24 08:30N 33°42' W 118°09'0 0.0
2016-Nov-24 07:33N 33°42' W 118°09'0 0.0
2016-Nov-24 06:33N 33°42' W 118°09'0 0.0
2016-Nov-24 05:30N 33°42' W 118°09'0 0.0
2016-Nov-24 04:33N 33°42' W 118°09'0 0.0
2016-Nov-24 03:30N 33°42' W 118°09'0 0.0
2016-Nov-24 02:33N 33°42' W 118°09'0 0.1
2016-Nov-24 01:33N 33°42' W 118°09'0 0.1
2016-Nov-24 00:33N 33°42' W 118°09'0 0.0
2016-Nov-23 23:33N 33°42' W 118°09'0 0.1
2016-Nov-23 22:33N 33°42' W 118°09'0 0.1
2016-Nov-23 21:30N 33°42' W 118°09'0 0.0
2016-Nov-23 20:33N 33°42' W 118°09'0 0.0
2016-Nov-23 19:33N 33°42' W 118°09'0 0.0
2016-Nov-23 18:33N 33°42' W 118°09'0 0.0
2016-Nov-23 17:30N 33°42' W 118°09'0 0.0
2016-Nov-23 16:15N 33°42' W 118°09'0 0.1
2016-Nov-23 15:30N 33°42' W 118°09'0 0.1
2016-Nov-23 14:24N 33°42' W 118°09'0 0.1
2016-Nov-23 13:33N 33°42' W 118°09'0 0.0
2016-Nov-23 12:18N 33°42' W 118°09'0 0.0
2016-Nov-23 11:33N 33°42' W 118°09'0 0.1
2016-Nov-23 10:33N 33°42' W 118°09'0 0.1
2016-Nov-23 09:21N 33°42' W 118°09'0 0.0
2016-Nov-23 08:12N 33°42' W 118°09'0 0.0
2016-Nov-23 07:33N 33°42' W 118°09'0 0.0
2016-Nov-23 06:15N 33°42' W 118°09'0 0.0
2016-Nov-23 03:33N 33°42' W 118°09'0 0.0
2016-Nov-23 02:33N 33°42' W 118°09'0 0.0
2016-Nov-23 00:33N 33°42' W 118°09'0 0.0
2016-Nov-22 23:33N 33°42' W 118°09'0 0.0
2016-Nov-22 22:33N 33°42' W 118°09'7 1.2
2016-Nov-22 16:31N 33°35' W 118°09'9 9.0
2016-Nov-22 15:33N 33°27' W 118°06'9 8.7
2016-Nov-22 14:33N 33°18' W 118°03'1111.2
2016-Nov-22 13:33N 33°08' W 117°59'3612.1
2016-Nov-22 10:33N 32°33' W 117°47'8 7.8
2016-Nov-22 09:33N 32°25' W 117°44'9 9.5
2016-Nov-22 08:33N 32°16' W 117°41'  
Track history (hours):
 
Tides and Currents Weather Stations Pressure Air Temp Water Temp Dewpoint Dewpoint Depression Visibility Wind Speed Wind Dir Waves Ship Positions

Aqualoyalty

Last reported at 2016-Nov-26 15:16 UTC. Time now 2016-Dec-06 19:53 UTC.
Position N 32°03' W 117°39'.
Warning: this ship's position is 10 days out of date.

Length 249 m; draft 8.5 m.

Type: Ship. MMSI: 636015177.

Date/timePositionNaut miles runAvg speedWind from/ knotsBaromVisibWave heightAir tempDewpointWater temp
2016-Nov-26 15:16N 32°03' W 117°39'913.0
2016-Nov-26 14:33N 32°12' W 117°42'1212.1
2016-Nov-26 13:33N 32°23' W 117°46'1110.9
2016-Nov-26 12:33N 32°34' W 117°50'1110.9
2016-Nov-26 11:33N 32°44' W 117°54'1212.0
2016-Nov-26 10:33N 32°55' W 117°58'1312.6
2016-Nov-26 09:33N 33°08' W 118°02'1211.8
2016-Nov-26 08:33N 33°19' W 118°06'1211.8
2016-Nov-26 07:33N 33°30' W 118°11'1111.2
2016-Nov-26 06:33N 33°41' W 118°12'3 2.9
2016-Nov-26 05:32N 33°44' W 118°13'0 0.0
2016-Nov-26 04:32N 33°44' W 118°13'0 0.0
2016-Nov-26 03:32N 33°44' W 118°13'0 0.1
2016-Nov-26 02:32N 33°44' W 118°13'0 0.1
2016-Nov-26 01:32N 33°44' W 118°13'0 0.5
2016-Nov-26 00:33N 33°44' W 118°13'1 0.0
2016-Nov-25 00:33N 33°45' W 118°13'0 0.1
2016-Nov-24 23:33N 33°45' W 118°13'5 4.6
2016-Nov-24 22:33N 33°42' W 118°10'1 0.5
2016-Nov-24 21:33N 33°42' W 118°09'0 0.0
2016-Nov-24 20:33N 33°42' W 118°09'0 0.0
2016-Nov-24 19:33N 33°42' W 118°09'0 0.0
2016-Nov-24 18:33N 33°42' W 118°09'0 0.0
2016-Nov-24 17:33N 33°42' W 118°09'0 0.0
2016-Nov-24 16:33N 33°42' W 118°09'0 0.0
2016-Nov-24 15:33N 33°42' W 118°09'0 0.0
2016-Nov-24 14:33N 33°42' W 118°09'0 0.0
2016-Nov-24 13:33N 33°42' W 118°09'0 0.1
2016-Nov-24 12:33N 33°42' W 118°09'0 0.0
2016-Nov-24 11:33N 33°42' W 118°09'0 0.0
2016-Nov-24 10:33N 33°42' W 118°09'0 0.1
2016-Nov-24 09:33N 33°42' W 118°09'0 0.0
2016-Nov-24 08:30N 33°42' W 118°09'0 0.0
2016-Nov-24 07:33N 33°42' W 118°09'0 0.0
2016-Nov-24 06:33N 33°42' W 118°09'0 0.0
2016-Nov-24 05:30N 33°42' W 118°09'0 0.0
2016-Nov-24 04:33N 33°42' W 118°09'0 0.0
2016-Nov-24 03:30N 33°42' W 118°09'0 0.0
2016-Nov-24 02:33N 33°42' W 118°09'0 0.1
2016-Nov-24 01:33N 33°42' W 118°09'0 0.1
2016-Nov-24 00:33N 33°42' W 118°09'0 0.0
2016-Nov-23 23:33N 33°42' W 118°09'0 0.1
2016-Nov-23 22:33N 33°42' W 118°09'0 0.1
2016-Nov-23 21:30N 33°42' W 118°09'0 0.0
2016-Nov-23 20:33N 33°42' W 118°09'0 0.0
2016-Nov-23 19:33N 33°42' W 118°09'0 0.0
2016-Nov-23 18:33N 33°42' W 118°09'0 0.0
2016-Nov-23 17:30N 33°42' W 118°09'0 0.0
2016-Nov-23 16:15N 33°42' W 118°09'0 0.1
2016-Nov-23 15:30N 33°42' W 118°09'0 0.1
2016-Nov-23 14:24N 33°42' W 118°09'0 0.1
2016-Nov-23 13:33N 33°42' W 118°09'0 0.0
2016-Nov-23 12:18N 33°42' W 118°09'0 0.0
2016-Nov-23 11:33N 33°42' W 118°09'0 0.1
2016-Nov-23 10:33N 33°42' W 118°09'0 0.1
2016-Nov-23 09:21N 33°42' W 118°09'0 0.0
2016-Nov-23 08:12N 33°42' W 118°09'0 0.0
2016-Nov-23 07:33N 33°42' W 118°09'0 0.0
2016-Nov-23 06:15N 33°42' W 118°09'0 0.0
2016-Nov-23 03:33N 33°42' W 118°09'0 0.0
2016-Nov-23 02:33N 33°42' W 118°09'0 0.0
2016-Nov-23 00:33N 33°42' W 118°09'0 0.0
2016-Nov-22 23:33N 33°42' W 118°09'0 0.0
2016-Nov-22 22:33N 33°42' W 118°09'7 1.2
2016-Nov-22 16:31N 33°35' W 118°09'9 9.0
2016-Nov-22 15:33N 33°27' W 118°06'9 8.7
2016-Nov-22 14:33N 33°18' W 118°03'1111.2
2016-Nov-22 13:33N 33°08' W 117°59'3612.1
2016-Nov-22 10:33N 32°33' W 117°47'8 7.8
2016-Nov-22 09:33N 32°25' W 117°44'9 9.5
2016-Nov-22 08:33N 32°16' W 117°41'  

Dump ship's entire track history